createdAt,value
2017-10-29T00:00:02.432Z,83.3
2017-10-29T00:00:30.495Z,83.4
2017-10-29T00:00:58.661Z,83.59
2017-10-29T00:01:26.784Z,83.11
2017-10-29T00:01:54.837Z,83.3
2017-10-29T00:02:22.900Z,83.2
2017-10-29T00:02:50.944Z,82.81
2017-10-29T00:03:18.978Z,82.81
2017-10-29T00:03:47.250Z,82.72
2017-10-29T00:04:15.292Z,82.81
2017-10-29T00:04:43.433Z,82.81
2017-10-29T00:05:11.557Z,83.01
2017-10-29T00:05:39.733Z,83.01
2017-10-29T00:06:07.961Z,83.11
2017-10-29T00:06:36.155Z,83.2
2017-10-29T00:07:04.201Z,83.3
2017-10-29T00:07:32.349Z,84.08
2017-10-29T00:08:00.291Z,84.36
2017-10-29T00:08:28.341Z,84.46
2017-10-29T00:08:56.406Z,84.36
2017-10-29T00:09:24.389Z,84.94
2017-10-29T00:09:52.314Z,84.66
2017-10-29T00:10:20.454Z,84.66
2017-10-29T00:10:48.516Z,84.94
2017-10-29T00:11:16.602Z,84.17
2017-10-29T00:11:44.514Z,84.08
2017-10-29T00:12:12.914Z,84.84
2017-10-29T00:12:40.913Z,84.56
2017-10-29T00:13:08.991Z,85.24
2017-10-29T00:13:36.933Z,85.33
2017-10-29T00:14:05.535Z,85.24
2017-10-29T00:14:34.037Z,85.14
2017-10-29T00:15:02.231Z,85.91
2017-10-29T00:15:30.402Z,85.33
2017-10-29T00:15:58.695Z,85.33
2017-10-29T00:16:27.135Z,85.62
2017-10-29T00:16:55.595Z,85.62
2017-10-29T00:17:23.726Z,85.82
2017-10-29T00:17:52.354Z,85.72
2017-10-29T00:18:21.106Z,85.62
2017-10-29T00:18:49.825Z,85.72
2017-10-29T00:19:18.332Z,85.52
2017-10-29T00:19:46.966Z,85.24
2017-10-29T00:20:15.614Z,85.04
2017-10-29T00:20:44.355Z,84.66
2017-10-29T00:21:13.143Z,84.75
2017-10-29T00:21:41.661Z,84.17
2017-10-29T00:22:10.169Z,84.36
2017-10-29T00:22:38.536Z,84.36
2017-10-29T00:23:07.019Z,84.36
2017-10-29T00:23:35.412Z,84.56
2017-10-29T00:24:03.868Z,84.56
2017-10-29T00:24:32.333Z,84.84
2017-10-29T00:25:01.007Z,84.66
2017-10-29T00:25:29.434Z,85.33
2017-10-29T00:25:57.792Z,85.24
2017-10-29T00:26:26.072Z,84.84
2017-10-29T00:26:54.481Z,85.14
2017-10-29T00:27:22.829Z,85.62
2017-10-29T00:27:50.898Z,85.04
2017-10-29T00:28:19.200Z,85.24
2017-10-29T00:28:47.353Z,85.42
2017-10-29T00:29:15.522Z,85.52
2017-10-29T00:29:43.668Z,85.82
2017-10-29T00:30:11.653Z,85.33
2017-10-29T00:30:39.894Z,84.94
2017-10-29T00:31:08.248Z,85.14
2017-10-29T00:31:36.337Z,85.14
2017-10-29T00:32:04.395Z,85.24
2017-10-29T00:32:32.388Z,84.46
2017-10-29T00:33:00.460Z,84.36
2017-10-29T00:33:28.506Z,84.36
2017-10-29T00:33:56.542Z,84.08
2017-10-29T00:34:24.525Z,83.88
2017-10-29T00:34:52.510Z,83.78
2017-10-29T00:35:20.572Z,84.08
2017-10-29T00:35:48.935Z,84.08
2017-10-29T00:36:17.437Z,83.88
2017-10-29T00:36:46.249Z,83.69
2017-10-29T00:37:14.581Z,83.78
2017-10-29T00:37:43.260Z,83.78
2017-10-29T00:38:11.634Z,84.36
2017-10-29T00:38:40.174Z,85.04
2017-10-29T00:39:08.614Z,85.24
2017-10-29T00:39:37.156Z,85.82
2017-10-29T00:40:05.824Z,86.1
2017-10-29T00:40:34.355Z,85.91
2017-10-29T00:41:02.926Z,85.91
2017-10-29T00:41:31.453Z,85.72
2017-10-29T00:41:59.797Z,85.04
2017-10-29T00:42:28.329Z,85.04
2017-10-29T00:42:57.067Z,85.42
2017-10-29T00:43:25.559Z,85.72
2017-10-29T00:43:54.163Z,85.91
2017-10-29T00:44:22.811Z,86.4
2017-10-29T00:44:51.577Z,86.2
2017-10-29T00:45:20.118Z,86.3
2017-10-29T00:45:48.273Z,87.07
2017-10-29T00:46:16.820Z,87.55
2017-10-29T00:46:45.629Z,87.36
2017-10-29T00:47:14.191Z,87.85
2017-10-29T00:47:42.967Z,88.13
2017-10-29T00:48:11.636Z,87.95
2017-10-29T00:48:40.341Z,88.53
2017-10-29T00:49:08.995Z,88.23
2017-10-29T00:49:37.677Z,88.23
2017-10-29T00:50:06.349Z,88.23
2017-10-29T00:50:35.011Z,88.13
2017-10-29T00:51:03.458Z,88.04
2017-10-29T00:51:31.956Z,88.71
2017-10-29T00:52:00.422Z,88.53
2017-10-29T00:52:29.022Z,88.71
2017-10-29T00:52:57.814Z,88.33
2017-10-29T00:53:26.216Z,89.01
2017-10-29T00:53:54.557Z,88.81
2017-10-29T00:54:23.237Z,88.43
2017-10-29T00:54:51.535Z,88.13
2017-10-29T00:55:20.223Z,88.33
2017-10-29T00:55:48.959Z,88.43
2017-10-29T00:56:17.300Z,88.62
2017-10-29T00:56:45.833Z,87.95
2017-10-29T00:57:14.137Z,88.43
2017-10-29T00:57:42.498Z,88.53
2017-10-29T00:58:11.353Z,88.43
2017-10-29T00:58:39.926Z,88.33
2017-10-29T00:59:08.391Z,88.04
2017-10-29T00:59:36.798Z,87.85
2017-10-29T01:00:05.181Z,87.36
2017-10-29T01:00:33.713Z,87.95
2017-10-29T01:01:02.249Z,87.65
2017-10-29T01:01:30.568Z,87.27
2017-10-29T01:01:58.929Z,87.36
2017-10-29T01:02:27.156Z,87.55
2017-10-29T01:02:55.776Z,87.17
2017-10-29T01:03:23.835Z,87.17
2017-10-29T01:03:51.882Z,87.17
2017-10-29T01:04:19.749Z,87.46
2017-10-29T01:04:47.780Z,86.98
2017-10-29T01:05:15.921Z,86.59
2017-10-29T01:05:44.004Z,86.3
2017-10-29T01:06:12.036Z,86.78
2017-10-29T01:06:40.261Z,87.17
2017-10-29T01:07:08.416Z,87.07
2017-10-29T01:07:36.561Z,86.78
2017-10-29T01:08:04.684Z,87.27
2017-10-29T01:08:32.844Z,87.17
2017-10-29T01:09:00.823Z,87.07
2017-10-29T01:09:28.873Z,87.17
2017-10-29T01:09:57.183Z,87.27
2017-10-29T01:10:25.420Z,87.65
2017-10-29T01:10:53.592Z,87.85
2017-10-29T01:11:21.544Z,88.33
2017-10-29T01:11:49.611Z,88.13
2017-10-29T01:12:17.652Z,87.95
2017-10-29T01:12:45.803Z,87.46
2017-10-29T01:13:13.869Z,87.46
2017-10-29T01:13:41.999Z,87.36
2017-10-29T01:14:10.045Z,87.55
2017-10-29T01:14:37.992Z,87.07
2017-10-29T01:15:06.016Z,86.78
2017-10-29T01:15:34.166Z,86.49
2017-10-29T01:16:02.378Z,86.4
2017-10-29T01:16:30.554Z,86.49
2017-10-29T01:16:58.514Z,87.07
2017-10-29T01:17:26.598Z,87.55
2017-10-29T01:17:54.775Z,87.07
2017-10-29T01:18:23.007Z,87.55
2017-10-29T01:18:51.401Z,87.07
2017-10-29T01:19:19.880Z,86.98
2017-10-29T01:19:48.509Z,87.17
2017-10-29T01:20:16.783Z,87.55
2017-10-29T01:20:44.877Z,87.17
2017-10-29T01:21:13.025Z,87.75
2017-10-29T01:21:41.177Z,87.95
2017-10-29T01:22:10.117Z,87.65
2017-10-29T01:22:38.152Z,87.27
2017-10-29T01:23:06.186Z,87.65
2017-10-29T01:23:34.345Z,87.85
2017-10-29T01:24:02.510Z,88.13
2017-10-29T01:24:30.668Z,87.75
2017-10-29T01:24:58.587Z,87.46
2017-10-29T01:25:26.635Z,87.17
2017-10-29T01:25:54.700Z,86.98
2017-10-29T01:26:22.906Z,87.27
2017-10-29T01:26:51.824Z,87.27
2017-10-29T01:27:20.015Z,86.98
2017-10-29T01:27:48.589Z,86.69
2017-10-29T01:28:16.807Z,86.3
2017-10-29T01:28:45.110Z,86.4
2017-10-29T01:29:13.179Z,86.49
2017-10-29T01:29:41.233Z,86.1
2017-10-29T01:30:09.380Z,86.01
2017-10-29T01:30:37.711Z,86.01
2017-10-29T01:31:05.866Z,86.3
2017-10-29T01:31:34.045Z,85.91
2017-10-29T01:32:02.207Z,86.1
2017-10-29T01:32:30.148Z,86.2
2017-10-29T01:32:58.309Z,86.1
2017-10-29T01:33:26.336Z,86.1
2017-10-29T01:33:54.477Z,86.4
2017-10-29T01:34:22.564Z,85.91
2017-10-29T01:34:51.040Z,86.3
2017-10-29T01:35:19.694Z,86.2
2017-10-29T01:35:48.345Z,86.2
2017-10-29T01:36:17.078Z,86.3
2017-10-29T01:36:45.698Z,86.3
2017-10-29T01:37:14.231Z,85.91
2017-10-29T01:37:43.016Z,86.69
2017-10-29T01:38:11.604Z,87.23
2017-10-29T01:38:40.327Z,86.69
2017-10-29T01:39:08.743Z,87.27
2017-10-29T01:39:36.862Z,86.98
2017-10-29T01:40:05.315Z,86.74
2017-10-29T01:40:33.907Z,86.65
2017-10-29T01:41:02.408Z,87.03
2017-10-29T01:41:31.129Z,87.65
2017-10-29T01:41:59.594Z,87.23
2017-10-29T01:42:28.177Z,86.93
2017-10-29T01:42:56.666Z,87.13
2017-10-29T01:43:25.315Z,87.23
2017-10-29T01:43:53.768Z,87.03
2017-10-29T01:44:22.411Z,87.32
2017-10-29T01:44:50.881Z,87.99
2017-10-29T01:45:19.450Z,88.29
2017-10-29T01:45:48.130Z,88.19
2017-10-29T01:46:16.862Z,88.39
2017-10-29T01:46:45.592Z,88.09
2017-10-29T01:47:14.215Z,88.29
2017-10-29T01:47:42.651Z,88.29
2017-10-29T01:48:11.481Z,88.09
2017-10-29T01:48:40.236Z,87.99
2017-10-29T01:49:08.923Z,87.81
2017-10-29T01:49:37.658Z,87.71
2017-10-29T01:50:06.148Z,87.51
2017-10-29T01:50:34.592Z,87.61
2017-10-29T01:51:03.194Z,88.09
2017-10-29T01:51:31.670Z,87.9
2017-10-29T01:52:00.289Z,87.81
2017-10-29T01:52:28.712Z,87.61
2017-10-29T01:52:57.342Z,87.41
2017-10-29T01:53:25.696Z,87.41
2017-10-29T01:53:54.206Z,87.32
2017-10-29T01:54:22.808Z,87.23
2017-10-29T01:54:51.416Z,87.23
2017-10-29T01:55:19.790Z,88.09
2017-10-29T01:55:47.955Z,87.99
2017-10-29T01:56:16.580Z,87.51
2017-10-29T01:56:44.879Z,87.61
2017-10-29T01:57:13.269Z,87.08
2017-10-29T01:57:41.615Z,87.08
2017-10-29T01:58:09.746Z,87.08
2017-10-29T01:58:37.929Z,87.18
2017-10-29T01:59:06.059Z,87.27
2017-10-29T01:59:34.295Z,87.37
2017-10-29T02:00:02.454Z,87.18
2017-10-29T02:00:30.674Z,87.08
2017-10-29T02:00:58.873Z,88.05
2017-10-29T02:01:26.943Z,87.66
2017-10-29T02:01:55.099Z,87.76
2017-10-29T02:02:23.062Z,87.66
2017-10-29T02:02:51.130Z,87.27
2017-10-29T02:03:19.409Z,87.47
2017-10-29T02:03:47.937Z,87.18
2017-10-29T02:04:16.338Z,87.66
2017-10-29T02:04:44.851Z,87.85
2017-10-29T02:05:13.258Z,88.43
2017-10-29T02:05:41.776Z,88.24
2017-10-29T02:06:10.015Z,89.01
2017-10-29T02:06:38.575Z,89.01
2017-10-29T02:07:06.675Z,89.31
2017-10-29T02:07:34.897Z,90.27
2017-10-29T02:08:03.021Z,90.03
2017-10-29T02:08:31.360Z,90.13
2017-10-29T02:08:59.632Z,89.75
2017-10-29T02:09:28.090Z,90.03
2017-10-29T02:09:56.378Z,89.75
2017-10-29T02:10:24.689Z,89.26
2017-10-29T02:10:52.954Z,89.36
2017-10-29T02:11:21.055Z,89.36
2017-10-29T02:11:49.264Z,89.26
2017-10-29T02:12:17.939Z,89.94
2017-10-29T02:12:46.077Z,89.75
2017-10-29T02:13:14.351Z,89.84
2017-10-29T02:13:42.805Z,89.94
2017-10-29T02:14:10.995Z,89.55
2017-10-29T02:14:39.344Z,89.75
2017-10-29T02:15:08.001Z,90.03
2017-10-29T02:15:36.584Z,90.03
2017-10-29T02:16:05.214Z,89.75
2017-10-29T02:16:33.761Z,90.13
2017-10-29T02:17:02.486Z,90.13
2017-10-29T02:17:31.279Z,89.94
2017-10-29T02:17:59.841Z,89.94
2017-10-29T02:18:28.297Z,89.94
2017-10-29T02:18:56.441Z,89.75
2017-10-29T02:19:24.893Z,90.23
2017-10-29T02:19:53.537Z,90.23
2017-10-29T02:20:21.885Z,90.13
2017-10-29T02:20:50.461Z,89.94
2017-10-29T02:21:19.022Z,89.84
2017-10-29T02:21:47.692Z,89.94
2017-10-29T02:22:16.283Z,90.52
2017-10-29T02:22:44.992Z,91
2017-10-29T02:23:13.228Z,91.19
2017-10-29T02:23:41.633Z,90.81
2017-10-29T02:24:10.330Z,90.33
2017-10-29T02:24:38.906Z,90.33
2017-10-29T02:25:07.195Z,90.91
2017-10-29T02:25:35.732Z,91.49
2017-10-29T02:26:04.154Z,91.49
2017-10-29T02:26:32.803Z,91
2017-10-29T02:27:01.405Z,91.09
2017-10-29T02:27:30.023Z,91.49
2017-10-29T02:27:58.655Z,91.39
2017-10-29T02:28:27.255Z,91.77
2017-10-29T02:28:55.914Z,91.67
2017-10-29T02:29:24.581Z,93.03
2017-10-29T02:29:53.239Z,92.93
2017-10-29T02:30:21.874Z,93.47
2017-10-29T02:30:50.571Z,92.79
2017-10-29T02:31:19.340Z,92.69
2017-10-29T02:31:48.019Z,93.08
2017-10-29T02:32:16.740Z,93.08
2017-10-29T02:32:45.464Z,93.76
2017-10-29T02:33:14.179Z,93.76
2017-10-29T02:33:42.469Z,93.85
2017-10-29T02:34:11.001Z,94.43
2017-10-29T02:34:39.728Z,93.95
2017-10-29T02:35:08.270Z,93.76
2017-10-29T02:35:37.088Z,93.85
2017-10-29T02:36:05.933Z,93.95
2017-10-29T02:36:34.496Z,94.14
2017-10-29T02:37:03.106Z,94.43
2017-10-29T02:37:31.628Z,94.24
2017-10-29T02:38:00.450Z,93.56
2017-10-29T02:38:29.430Z,93.85
2017-10-29T02:38:58.068Z,93.18
2017-10-29T02:39:26.554Z,92.5
2017-10-29T02:39:55.277Z,92.21
2017-10-29T02:40:24.004Z,92.02
2017-10-29T02:40:52.814Z,91.92
2017-10-29T02:41:21.622Z,92.11
2017-10-29T02:41:50.420Z,92.31
2017-10-29T02:42:19.200Z,92.41
2017-10-29T02:42:47.835Z,92.02
2017-10-29T02:43:16.700Z,92.69
2017-10-29T02:43:45.318Z,93.37
2017-10-29T02:44:13.949Z,93.56
2017-10-29T02:44:42.532Z,94.34
2017-10-29T02:45:11.272Z,94.62
2017-10-29T02:45:40.154Z,94.24
2017-10-29T02:46:08.897Z,94.92
2017-10-29T02:46:37.565Z,94.72
2017-10-29T02:47:06.260Z,94.72
2017-10-29T02:47:34.959Z,94.92
2017-10-29T02:48:03.696Z,94.43
2017-10-29T02:48:32.380Z,94.14
2017-10-29T02:49:00.942Z,93.27
2017-10-29T02:49:29.525Z,92.02
2017-10-29T02:49:58.115Z,92.11
2017-10-29T02:50:26.750Z,92.41
2017-10-29T02:50:55.354Z,91.92
2017-10-29T02:51:23.992Z,92.69
2017-10-29T02:51:52.497Z,93.66
2017-10-29T02:52:21.049Z,94.14
2017-10-29T02:52:49.685Z,94.72
2017-10-29T02:53:18.196Z,95.45
2017-10-29T02:53:46.764Z,95.35
2017-10-29T02:54:15.232Z,95.06
2017-10-29T02:54:43.799Z,95.64
2017-10-29T02:55:12.595Z,96.7
2017-10-29T02:55:41.256Z,95.93
2017-10-29T02:56:09.904Z,96.7
2017-10-29T02:56:38.541Z,97.47
2017-10-29T02:57:07.206Z,97.28
2017-10-29T02:57:35.358Z,97.19
2017-10-29T02:58:04.102Z,97.09
2017-10-29T02:58:32.778Z,97.04
2017-10-29T02:59:01.281Z,97.24
2017-10-29T02:59:29.897Z,97.52
2017-10-29T02:59:58.733Z,97.24
2017-10-29T03:00:27.281Z,97.52
2017-10-29T03:00:56.026Z,97.72
2017-10-29T03:01:24.779Z,97.52
2017-10-29T03:01:53.272Z,96.75
2017-10-29T03:02:21.806Z,96.26
2017-10-29T03:02:50.436Z,95.88
2017-10-29T03:03:19.443Z,95.5
2017-10-29T03:03:48.208Z,95.78
2017-10-29T03:04:16.760Z,95.35
2017-10-29T03:04:45.512Z,96.17
2017-10-29T03:05:14.190Z,96.08
2017-10-29T03:05:42.957Z,96.08
2017-10-29T03:06:11.680Z,95.5
2017-10-29T03:06:40.376Z,95.88
2017-10-29T03:07:09.070Z,95.88
2017-10-29T03:07:37.826Z,95.11
2017-10-29T03:08:06.319Z,95.5
2017-10-29T03:08:34.839Z,95.59
2017-10-29T03:09:03.389Z,95.64
2017-10-29T03:09:31.883Z,95.78
2017-10-29T03:10:00.318Z,95.5
2017-10-29T03:10:28.955Z,95.06
2017-10-29T03:10:57.564Z,95.35
2017-10-29T03:11:26.432Z,95.25
2017-10-29T03:11:55.019Z,95.45
2017-10-29T03:12:23.412Z,95.16
2017-10-29T03:12:51.966Z,95.45
2017-10-29T03:13:20.275Z,94.96
2017-10-29T03:13:48.762Z,94.77
2017-10-29T03:14:17.381Z,94.77
2017-10-29T03:14:45.737Z,94.77
2017-10-29T03:15:14.290Z,94.48
2017-10-29T03:15:43.008Z,93.71
2017-10-29T03:16:11.721Z,93.23
2017-10-29T03:16:40.374Z,93.32
2017-10-29T03:17:09.061Z,93.23
2017-10-29T03:17:37.430Z,92.94
2017-10-29T03:18:06.211Z,93.8
2017-10-29T03:18:35.020Z,93.71
2017-10-29T03:19:03.590Z,93.62
2017-10-29T03:19:32.328Z,93.71
2017-10-29T03:20:00.865Z,93.8
2017-10-29T03:20:29.872Z,93.42
2017-10-29T03:20:58.106Z,93.8
2017-10-29T03:21:26.278Z,92.94
2017-10-29T03:21:54.668Z,93.71
2017-10-29T03:22:23.259Z,93.9
2017-10-29T03:22:51.883Z,93.8
2017-10-29T03:23:20.557Z,93.62
2017-10-29T03:23:49.424Z,93.66
2017-10-29T03:24:18.234Z,93.18
2017-10-29T03:24:46.930Z,94.05
2017-10-29T03:25:15.437Z,93.57
2017-10-29T03:25:44.187Z,93.47
2017-10-29T03:26:13.072Z,93.37
2017-10-29T03:26:41.780Z,94.15
2017-10-29T03:27:10.525Z,94.15
2017-10-29T03:27:39.038Z,94.92
2017-10-29T03:28:07.800Z,95.4
2017-10-29T03:28:36.616Z,95.98
2017-10-29T03:29:05.383Z,95.69
2017-10-29T03:29:34.088Z,95.5
2017-10-29T03:30:02.667Z,95.79
2017-10-29T03:30:31.322Z,95.98
2017-10-29T03:30:59.952Z,95.69
2017-10-29T03:31:28.661Z,97.14
2017-10-29T03:31:57.163Z,97.04
2017-10-29T03:32:25.890Z,97.14
2017-10-29T03:32:54.387Z,97.52
2017-10-29T03:33:23.047Z,98.58
2017-10-29T03:33:51.464Z,99.65
2017-10-29T03:34:19.934Z,99.5
2017-10-29T03:34:48.412Z,98.49
2017-10-29T03:35:17.086Z,98.1
2017-10-29T03:35:45.234Z,97.91
2017-10-29T03:36:13.443Z,97.81
2017-10-29T03:36:41.620Z,97.91
2017-10-29T03:37:09.783Z,97.62
2017-10-29T03:37:37.956Z,97.62
2017-10-29T03:38:06.007Z,97.24
2017-10-29T03:38:34.052Z,97.14
2017-10-29T03:39:02.217Z,96.56
2017-10-29T03:39:30.374Z,96.27
2017-10-29T03:39:58.326Z,96.46
2017-10-29T03:40:26.522Z,96.46
2017-10-29T03:40:55.437Z,97.24
2017-10-29T03:41:23.474Z,97.24
2017-10-29T03:41:51.621Z,97.47
2017-10-29T03:42:19.780Z,97.57
2017-10-29T03:42:48.092Z,97.86
2017-10-29T03:43:16.707Z,97.86
2017-10-29T03:43:45.338Z,98.34
2017-10-29T03:44:13.660Z,98.82
2017-10-29T03:44:42.494Z,98.92
2017-10-29T03:45:10.795Z,99.02
2017-10-29T03:45:39.214Z,99.21
2017-10-29T03:46:07.183Z,99.69
2017-10-29T03:46:35.299Z,99.99
2017-10-29T03:47:03.242Z,99.11
2017-10-29T03:47:31.418Z,99.16
2017-10-29T03:47:59.584Z,98.63
2017-10-29T03:48:27.634Z,99.55
2017-10-29T03:48:55.697Z,99.5
2017-10-29T03:49:23.889Z,99.35
2017-10-29T03:49:51.961Z,99.6
2017-10-29T03:50:20.036Z,99.99
2017-10-29T03:50:48.091Z,99.99
2017-10-29T03:51:16.246Z,99.84
2017-10-29T03:51:44.385Z,99.99
2017-10-29T03:52:12.532Z,99.35
2017-10-29T03:52:40.592Z,98.68
2017-10-29T03:53:08.732Z,98
2017-10-29T03:53:36.881Z,97.57
2017-10-29T03:54:05.046Z,98
2017-10-29T03:54:33.109Z,98.25
2017-10-29T03:55:01.202Z,98.15
2017-10-29T03:55:29.425Z,97.77
2017-10-29T03:55:57.503Z,98.15
2017-10-29T03:56:25.698Z,97.67
2017-10-29T03:56:53.869Z,97.77
2017-10-29T03:57:22.255Z,97.67
2017-10-29T03:57:50.816Z,98.15
2017-10-29T03:58:19.370Z,98.05
2017-10-29T03:58:47.895Z,98.15
2017-10-29T03:59:16.270Z,97.96
2017-10-29T03:59:44.886Z,98.25
2017-10-29T04:00:13.058Z,97.86
2017-10-29T04:00:41.337Z,97.96
2017-10-29T04:01:09.470Z,98.15
2017-10-29T04:01:37.568Z,97.86
2017-10-29T04:02:05.749Z,97.77
2017-10-29T04:02:33.803Z,97.67
2017-10-29T04:03:01.761Z,97.96
2017-10-29T04:03:29.912Z,98.39
2017-10-29T04:03:58.078Z,99.79
2017-10-29T04:04:26.139Z,99.99
2017-10-29T04:04:54.325Z,99.99
2017-10-29T04:05:22.403Z,99.99
2017-10-29T04:05:50.462Z,99.99
2017-10-29T04:06:18.386Z,99.99
2017-10-29T04:06:46.540Z,99.99
2017-10-29T04:07:14.674Z,99.99
2017-10-29T04:07:42.853Z,99.99
2017-10-29T04:08:10.894Z,99.99
2017-10-29T04:08:38.982Z,99.99
2017-10-29T04:09:07.110Z,99.99
2017-10-29T04:09:34.944Z,99.99
2017-10-29T04:10:02.890Z,99.99
2017-10-29T04:10:30.929Z,99.99
2017-10-29T04:10:59.068Z,99.99
2017-10-29T04:11:27.120Z,99.99
2017-10-29T04:11:55.205Z,99.99
2017-10-29T04:12:23.383Z,99.99
2017-10-29T04:12:51.535Z,99.99
2017-10-29T04:13:19.666Z,99.99
2017-10-29T04:13:47.712Z,99.99
2017-10-29T04:14:15.892Z,99.99
2017-10-29T04:14:44.018Z,99.99
2017-10-29T04:15:12.701Z,99.99
2017-10-29T04:15:41.095Z,99.99
2017-10-29T04:16:09.632Z,99.99
2017-10-29T04:16:38.231Z,99.99
2017-10-29T04:17:06.478Z,99.99
2017-10-29T04:17:34.703Z,99.99
2017-10-29T04:18:03.028Z,99.99
2017-10-29T04:18:31.067Z,99.99
2017-10-29T04:18:59.027Z,99.99
2017-10-29T04:19:27.199Z,99.6
2017-10-29T04:19:55.142Z,99.99
2017-10-29T04:20:23.185Z,99.99
2017-10-29T04:20:51.206Z,99.99
2017-10-29T04:21:19.237Z,99.99
2017-10-29T04:21:47.382Z,99.99
2017-10-29T04:22:15.512Z,99.99
2017-10-29T04:22:43.531Z,99.99
2017-10-29T04:23:11.579Z,99.99
2017-10-29T04:23:39.610Z,99.99
2017-10-29T04:24:07.754Z,99.99
2017-10-29T04:24:35.483Z,99.99
2017-10-29T04:25:03.544Z,99.99
2017-10-29T04:25:31.575Z,99.74
2017-10-29T04:25:59.720Z,99.35
2017-10-29T04:26:27.748Z,99.55
2017-10-29T04:26:55.804Z,99.99
2017-10-29T04:27:23.835Z,99.99
2017-10-29T04:27:52.034Z,99.99
2017-10-29T04:28:20.283Z,99.99
2017-10-29T04:28:48.420Z,99.99
2017-10-29T04:29:16.450Z,99.99
2017-10-29T04:29:44.384Z,99.99
2017-10-29T04:30:12.414Z,99.99
2017-10-29T04:30:40.609Z,99.99
2017-10-29T04:31:08.764Z,99.99
2017-10-29T04:31:36.914Z,99.99
2017-10-29T04:32:04.965Z,99.99
2017-10-29T04:32:32.800Z,99.99
2017-10-29T04:33:00.913Z,99.99
2017-10-29T04:33:28.974Z,99.99
2017-10-29T04:33:57.410Z,99.99
2017-10-29T04:34:26.178Z,99.99
2017-10-29T04:34:54.827Z,99.93
2017-10-29T04:35:23.262Z,99.99
2017-10-29T04:35:51.577Z,99.84
2017-10-29T04:36:20.039Z,99.26
2017-10-29T04:36:48.248Z,99.65
2017-10-29T04:37:16.548Z,99.65
2017-10-29T04:37:45.248Z,99.55
2017-10-29T04:38:13.864Z,98.87
2017-10-29T04:38:42.444Z,98.68
2017-10-29T04:39:10.875Z,98.78
2017-10-29T04:39:39.472Z,98.97
2017-10-29T04:40:07.932Z,98.68
2017-10-29T04:40:36.489Z,98.68
2017-10-29T04:41:05.088Z,98.25
2017-10-29T04:41:33.649Z,98.25
2017-10-29T04:42:01.962Z,98.54
2017-10-29T04:42:30.093Z,98.82
2017-10-29T04:42:58.242Z,99.02
2017-10-29T04:43:26.423Z,98.92
2017-10-29T04:43:54.580Z,99.11
2017-10-29T04:44:22.557Z,99.6
2017-10-29T04:44:50.408Z,99.3
2017-10-29T04:45:18.540Z,99.79
2017-10-29T04:45:46.620Z,99.4
2017-10-29T04:46:14.684Z,99.4
2017-10-29T04:46:42.867Z,99.5
2017-10-29T04:47:10.900Z,99.69
2017-10-29T04:47:39.042Z,99.88
2017-10-29T04:48:07.222Z,99.99
2017-10-29T04:48:35.268Z,99.99
2017-10-29T04:49:03.203Z,99.99
2017-10-29T04:49:31.352Z,99.99
2017-10-29T04:49:59.318Z,99.99
2017-10-29T04:50:27.459Z,99.99
2017-10-29T04:50:55.504Z,99.99
2017-10-29T04:51:23.564Z,99.99
2017-10-29T04:51:51.591Z,99.99
2017-10-29T04:52:19.535Z,99.99
2017-10-29T04:52:47.399Z,99.88
2017-10-29T04:53:15.554Z,99.79
2017-10-29T04:53:43.687Z,99.99
2017-10-29T04:54:11.875Z,99.88
2017-10-29T04:54:40.034Z,99.99
2017-10-29T04:55:08.005Z,99.99
2017-10-29T04:55:36.037Z,99.99
2017-10-29T04:56:04.070Z,99.99
2017-10-29T04:56:32.128Z,99.99
2017-10-29T04:57:00.181Z,99.99
2017-10-29T04:57:28.249Z,99.99
2017-10-29T04:57:56.397Z,99.99
2017-10-29T04:58:24.554Z,99.99
2017-10-29T04:58:52.657Z,99.99
2017-10-29T04:59:20.638Z,99.99
2017-10-29T04:59:48.810Z,99.99
2017-10-29T05:00:16.973Z,99.93
2017-10-29T05:00:45.112Z,99.99
2017-10-29T05:01:13.041Z,99.99
2017-10-29T05:01:40.954Z,99.65
2017-10-29T05:02:08.936Z,99.99
2017-10-29T05:02:36.998Z,99.55
2017-10-29T05:03:05.139Z,99.99
2017-10-29T05:03:33.195Z,99.99
2017-10-29T05:04:01.354Z,99.99
2017-10-29T05:04:29.495Z,99.99
2017-10-29T05:04:57.552Z,99.99
2017-10-29T05:05:25.577Z,99.99
2017-10-29T05:05:53.722Z,99.99
2017-10-29T05:06:21.883Z,99.99
2017-10-29T05:06:49.966Z,99.99
2017-10-29T05:07:18.007Z,99.99
2017-10-29T05:07:46.264Z,99.84
2017-10-29T05:08:15.026Z,99.99
2017-10-29T05:08:43.746Z,99.99
2017-10-29T05:09:12.439Z,99.74
2017-10-29T05:09:40.997Z,99.55
2017-10-29T05:10:09.012Z,99.93
2017-10-29T05:10:37.058Z,99.65
2017-10-29T05:11:05.298Z,99.16
2017-10-29T05:11:33.461Z,99.55
2017-10-29T05:12:01.603Z,99.55
2017-10-29T05:12:29.563Z,99.16
2017-10-29T05:12:57.614Z,99.35
2017-10-29T05:13:25.769Z,99.55
2017-10-29T05:13:54.113Z,99.55
2017-10-29T05:14:22.174Z,99.07
2017-10-29T05:14:50.121Z,99.55
2017-10-29T05:15:18.137Z,99.35
2017-10-29T05:15:46.198Z,99.45
2017-10-29T05:16:14.068Z,99.99
2017-10-29T05:16:42.116Z,99.99
2017-10-29T05:17:10.283Z,99.93
2017-10-29T05:17:38.308Z,99.74
2017-10-29T05:18:06.453Z,99.35
2017-10-29T05:18:34.404Z,98.87
2017-10-29T05:19:02.543Z,99.16
2017-10-29T05:19:30.673Z,98.2
2017-10-29T05:19:58.728Z,98.49
2017-10-29T05:20:26.794Z,98.2
2017-10-29T05:20:54.937Z,97.91
2017-10-29T05:21:22.849Z,97.91
2017-10-29T05:21:50.884Z,98
2017-10-29T05:22:18.939Z,98.1
2017-10-29T05:22:46.986Z,98.2
2017-10-29T05:23:15.144Z,98
2017-10-29T05:23:43.326Z,97.72
2017-10-29T05:24:11.487Z,97.81
2017-10-29T05:24:39.510Z,98.29
2017-10-29T05:25:07.634Z,97.67
2017-10-29T05:25:35.684Z,97.77
2017-10-29T05:26:03.738Z,97.67
2017-10-29T05:26:31.873Z,97.86
2017-10-29T05:26:59.833Z,98.15
2017-10-29T05:27:28.182Z,98.44
2017-10-29T05:27:56.454Z,98.05
2017-10-29T05:28:24.547Z,98.73
2017-10-29T05:28:52.604Z,99.02
2017-10-29T05:29:20.774Z,98.82
2017-10-29T05:30:27.139Z,99.99
2017-10-29T05:30:55.077Z,99.79
2017-10-29T05:31:23.033Z,99.99
2017-10-29T05:31:51.084Z,99.88
2017-10-29T05:32:19.034Z,99.99
2017-10-29T05:32:47.074Z,99.99
2017-10-29T05:33:15.137Z,99.99
2017-10-29T05:33:43.234Z,99.99
2017-10-29T05:34:11.390Z,99.99
2017-10-29T05:34:39.440Z,99.99
2017-10-29T05:35:07.467Z,99.99
2017-10-29T05:35:35.639Z,99.99
2017-10-29T05:36:03.590Z,99.99
2017-10-29T05:36:31.611Z,99.55
2017-10-29T05:36:59.733Z,99.65
2017-10-29T05:37:27.777Z,99.35
2017-10-29T05:37:55.834Z,99.65
2017-10-29T05:38:23.998Z,99.35
2017-10-29T05:38:52.163Z,99.35
2017-10-29T05:39:20.328Z,99.65
2017-10-29T05:39:48.286Z,99.5
2017-10-29T05:40:16.465Z,99.99
2017-10-29T05:40:44.530Z,99.99
2017-10-29T05:41:12.718Z,99.99
2017-10-29T05:41:40.768Z,99.99
2017-10-29T05:42:08.927Z,99.99
2017-10-29T05:42:36.977Z,99.99
2017-10-29T05:43:05.125Z,99.99
2017-10-29T05:43:33.143Z,99.99
2017-10-29T05:44:01.169Z,99.99
2017-10-29T05:44:29.203Z,99.99
2017-10-29T05:44:57.356Z,99.99
2017-10-29T05:45:25.411Z,99.99
2017-10-29T05:45:53.461Z,99.99
2017-10-29T05:46:21.327Z,99.99
2017-10-29T05:46:49.480Z,99.99
2017-10-29T05:47:17.509Z,99.99
2017-10-29T05:47:45.631Z,99.99
2017-10-29T05:48:13.875Z,99.99
2017-10-29T05:48:41.933Z,99.99
2017-10-29T05:49:10.062Z,99.99
2017-10-29T05:49:38.322Z,99.99
2017-10-29T05:50:06.371Z,99.99
2017-10-29T05:50:34.436Z,99.99
2017-10-29T05:51:02.498Z,99.99
2017-10-29T05:51:30.648Z,99.99
2017-10-29T05:51:58.706Z,99.99
2017-10-29T05:52:26.735Z,99.99
2017-10-29T05:52:54.652Z,99.99
2017-10-29T05:53:22.679Z,99.99
2017-10-29T05:53:50.687Z,99.99
2017-10-29T05:54:18.730Z,99.99
2017-10-29T05:54:46.706Z,99.99
2017-10-29T05:55:14.875Z,99.99
2017-10-29T05:55:42.809Z,99.99
2017-10-29T05:56:10.830Z,99.99
2017-10-29T05:56:38.995Z,99.99
2017-10-29T05:57:07.052Z,99.99
2017-10-29T05:57:35.088Z,99.99
2017-10-29T05:58:03.223Z,99.99
2017-10-29T05:58:31.364Z,99.99
2017-10-29T05:58:59.315Z,99.99
2017-10-29T05:59:27.292Z,99.99
2017-10-29T05:59:55.347Z,99.99
2017-10-29T06:00:23.555Z,99.99
2017-10-29T06:00:51.625Z,99.99
2017-10-29T06:01:19.779Z,99.99
2017-10-29T06:01:47.792Z,99.99
2017-10-29T06:02:16.511Z,99.99
2017-10-29T06:02:44.691Z,99.99
2017-10-29T06:03:12.871Z,99.99
2017-10-29T06:03:40.948Z,99.99
2017-10-29T06:04:08.989Z,99.99
2017-10-29T06:04:37.044Z,99.99
2017-10-29T06:05:05.207Z,99.99
2017-10-29T06:05:33.148Z,99.99
2017-10-29T06:06:01.109Z,99.99
2017-10-29T06:06:29.946Z,99.99